Portada
METAR-TAF:

METAR-TAF

Aeropuertos :

Matagami, Quebec, Canadá

latitud: 49-46N, longitud: 077-49W, altitud: 281 m

Observación

El informe se hizo hace 55 minutos, a las 05:00 UTC
Viento 8 kt del oeste
Temperatura -15°C
Humedad 55%
Presión 1015 hPa
Visibilidad: 14.5 km
Cielo despejado

METAR: CYNM 250500Z AUTO 27008KT 9SM CLR M15/M22 A2997 RMK SLP176

Hora: 01:55 (05:55 UTC)


TAF: falta

Observaciones y pronósticos meteorológicos de más de 4000 aeropuertos (mensajes METAR y TAF).

Los puntos amarillos y rojos representan las estaciones disponibles.

Ponga el ratón en el punto deseado para ver el nombre de la estación.

Haga clic para ver las observaciones y los pronósticos meteorológicos.

Para cambiar el mapa : haga clic en los botones verdes con una cruz de color negro para hacer un zoom, en el botón verde con un guión para alejar o en las flechas verdes para mapas adyacentes.


METAR-TAF: